• Join FlightAware (Why Join?)
  • Login
  • US Flag 
11:56PM EDT


 

Airport Tracker/Info


-or-


 

Live Flight TrackerFlight Track Log ✈ FFT920 ✈ 15-Jul-2013 ✈ KRDU - KTTN

Flight Track Log - Related Links

Times and Time Zones

All times are in EDT time to prevent confusion due to time zone crossing. See the FFT920 flight status page for this flight to view local times or setup timezone preferences in your user account.

Time Position Orientation Groundspeed Altitude Reporting Facility
EDT Latitude Longitude Course Direction KTS MPH feet Rate Location/Type
08:37AM 35.8986 -78.7792 24° Northeast 152 175 1,300  Level Washington Center
08:38AM 35.9411 -78.7553 24° Northeast 191 220 2,800 1,860 Climbing Washington Center
08:39AM 36.0106 -78.7297 17° North 285 328 5,100 2,700 Climbing Washington Center
08:40AM 36.1117 -78.6978 14° North 290 334 9,300 2,580 Climbing Washington Center
08:41AM 36.1833 -78.6697 18° North 290 334 11,200 2,400 Climbing Washington Center
08:42AM 36.2906 -78.6353 15° North 327 376 14,100 2,640 Climbing Washington Center
08:43AM 36.3769 -78.6053 16° North 351 404 16,600 2,160 Climbing Washington Center
08:44AM 36.4864 -78.5681 15° North 364 419 18,600 1,980 Climbing Washington Center
08:45AM 36.5872 -78.5331 16° North 369 425 20,600 1,920 Climbing Washington Center
08:46AM 36.6906 -78.4931 17° North 375 432 22,500 1,620 Climbing Washington Center
08:47AM 36.7942 -78.4372 23° Northeast 386 444 24,000 720 Climbing Washington Center
08:48AM 36.8856 -78.3628 33° Northeast 391 450 24,000  Level Washington Center
08:49AM 36.9664 -78.2928 35° Northeast 391 450 24,000  Level Washington Center
08:50AM 37.0556 -78.2206 33° Northeast 391 450 24,000  Level Washington Center
08:51AM 37.1533 -78.1403 33° Northeast 385 443 24,000 180 Level Washington Center
08:52AM 37.2444 -78.0678 32° Northeast 385 443 24,400 960 Climbing Washington Center
08:53AM 37.3400 -77.9900 33° Northeast 385 443 25,900 1,860 Climbing Washington Center
08:54AM 37.4333 -77.9117 34° Northeast 395 455 28,100 1,320 Climbing Washington Center
08:55AM 37.5289 -77.8283 35° Northeast 401 461 28,700 420 Climbing Washington Center
08:56AM 37.6286 -77.7394 35° Northeast 416 479 29,000 120 Climbing Washington Center
08:57AM 37.7303 -77.6478 35° Northeast 434 499 29,000  Level Washington Center
08:58AM 37.8297 -77.5558 36° Northeast 439 505 29,000  Level Washington Center
08:59AM 37.9356 -77.4583 36° Northeast 444 511 29,000  Level Washington Center
09:00AM 38.0181 -77.3814 36° Northeast 454 522 29,000  Level Washington Center
09:01AM 38.1342 -77.2786 35° Northeast 454 522 29,000 -60 Level Washington Center
09:02AM 38.2503 -77.1728 36° Northeast 459 528 28,900 -360 Descending Washington Center
09:03AM 38.3411 -77.0875 36° Northeast 458 527 28,400 -660 Descending Washington Center
09:04AM 38.4444 -76.9914 36° Northeast 458 527 27,700 -720 Descending Washington Center
09:05AM 38.5456 -76.8950 37° Northeast 458 527 27,000 -1,140 Descending Washington Center
09:06AM 38.6467 -76.8011 36° Northeast 453 521 25,500 -1,800 Descending Washington Center
09:07AM 38.7433 -76.7150 35° Northeast 447 514 23,500 -2,040 Descending Washington Center
09:08AM 38.8358 -76.6336 34° Northeast 426 490 21,500 -1,680 Descending Washington Center
09:09AM 38.8744 -76.5061 69° East 381 438 20,100 -780 Descending Washington Center
09:10AM 38.9025 -76.3678 75° East 381 438 20,000 -360 Descending Washington Center
09:11AM 38.9325 -76.2319 74° East 381 438 19,500 -1,260 Descending Washington Center
09:12AM 38.9664 -76.0828 74° East 388 447 17,600 -1,800 Descending Washington Center
09:13AM 38.9942 -75.9494 75° East 382 440 15,900 -1,380 Descending Washington Center
09:14AM 39.0256 -75.8242 72° East 376 433 14,900 -600 Descending Washington Center
09:16AM 39.1000 -75.6833 56° Northeast 324 373 14,500 -840 Descending Philadelphia TRACON
09:17AM 39.1833 -75.6667 North 328 377 13,000 -1,320 Descending Philadelphia TRACON
09:18AM 39.2833 -75.6500 North 317 365 12,000 -540 Descending Philadelphia TRACON
09:19AM 39.3333 -75.6000 38° Northeast 304 350 12,000  Level Philadelphia TRACON
09:20AM 39.4167 -75.5500 25° Northeast 302 348 12,000  Level Philadelphia TRACON
09:21AM 39.4833 -75.4833 38° Northeast 300 345 12,000  Level Philadelphia TRACON
09:22AM 39.5500 -75.4333 30° Northeast 300 345 12,000 -240 Level Philadelphia TRACON
09:23AM 39.6333 -75.3667 32° Northeast 299 344 11,600 -480 Descending Philadelphia TRACON
09:24AM 39.7000 -75.3000 38° Northeast 298 343 11,100 -540 Descending Philadelphia TRACON
09:25AM 39.7667 -75.2333 38° Northeast 293 337 10,500 -600 Descending Philadelphia TRACON
09:26AM 39.8500 -75.1833 25° Northeast 290 334 9,800 -1,200 Descending Philadelphia TRACON
09:27AM 39.9167 -75.1167 37° Northeast 288 331 8,100 -1,560 Descending Philadelphia TRACON
09:28AM 39.9833 -75.0667 30° Northeast 279 321 6,700 -1,500 Descending Philadelphia TRACON
09:29AM 40.0500 -75.0000 37° Northeast 272 313 5,000 -1,560 Descending Philadelphia TRACON
09:30AM 40.1167 -74.9500 30° Northeast 267 307 3,500 -1,380 Descending Philadelphia TRACON
09:31AM 40.1667 -74.9167 27° Northeast 259 298 2,600 -900 Descending Philadelphia TRACON
09:32AM 40.2000 -74.8500 57° Northeast 237 273 1,900 -480 Descending Philadelphia TRACON
09:33AM 40.2500 -74.7667 52° Northeast 225 259 1,700 -360 Descending Philadelphia TRACON
09:34AM 40.2833 -74.7500 21° North 162 186 1,200 -540 Descending Philadelphia TRACON
09:35AM 40.3000 -74.7833 303° West 130 150 700 -540 Descending Philadelphia TRACON